Time;durP1;ratioP1;P1;durP2;ratioP2;P2;SDS_P1;SDS_P2;PMS_P1;PMS_P2;Temp;Humidity;BMP_temperature;BMP_pressure;BME280_temperature;BME280_humidity;BME280_pressure;Samples;Min_cycle;Max_cycle;Signal;HPM_P1;HPM_P2
2022/03/15 00:02:33;;;;;;;35.90;18.98;;;;;;;7.95;71.02;102718.78;4933105;28;20027;-85
2022/03/15 00:11:43;;;;;;;30.10;16.95;;;;;;;7.84;70.79;102705.59;4961123;28;19929;-85
2022/03/15 00:14:20;;;;;;;30.73;17.80;;;;;;;7.84;71.57;102713.50;4968288;28;20045;-85
2022/03/15 00:16:54;;;;;;;30.45;18.73;;;;;;;7.83;71.69;102714.34;4987226;28;20038;-85
2022/03/15 00:19:53;;;;;;;32.03;17.77;;;;;;;7.83;71.18;102712.63;4983164;28;20049;-85
2022/03/15 00:22:49;;;;;;;35.53;18.67;;;;;;;7.87;71.18;102708.22;4996223;28;20048;-85
2022/03/15 00:25:46;;;;;;;36.88;19.23;;;;;;;7.85;70.48;102704.72;4995057;28;20041;-85
2022/03/15 00:32:04;;;;;;;35.38;18.55;;;;;;;7.90;71.11;102702.97;4992274;28;20069;-85
2022/03/15 00:35:24;;;;;;;33.10;18.87;;;;;;;7.87;70.79;102706.47;4995583;28;20045;-85
2022/03/15 00:38:23;;;;;;;32.05;17.17;;;;;;;7.82;70.80;102708.22;4987243;28;20348;-86
2022/03/15 00:41:16;;;;;;;32.33;17.33;;;;;;;7.72;70.35;102716.97;4994605;28;20547;-85
2022/03/15 00:43:58;;;;;;;35.78;17.92;;;;;;;7.64;70.39;102710.81;5029083;28;20036;-84
2022/03/15 00:46:52;;;;;;;31.02;17.38;;;;;;;7.68;70.93;102713.47;5036553;28;20514;-85
2022/03/15 00:49:20;;;;;;;31.13;17.38;;;;;;;7.64;71.29;102705.56;5013618;28;20041;-85
2022/03/15 00:52:35;;;;;;;29.65;17.52;;;;;;;7.67;71.31;102710.84;5013278;28;20141;-85
2022/03/15 00:59:44;;;;;;;31.55;17.98;;;;;;;7.31;72.24;102699.31;5014806;28;20072;-85
2022/03/15 01:03:07;;;;;;;32.80;17.52;;;;;;;7.35;71.82;102702.84;5005705;28;20511;-85
2022/03/15 01:05:58;;;;;;;30.00;16.63;;;;;;;7.22;72.10;102687.91;5015212;28;20077;-85
2022/03/15 01:08:31;;;;;;;32.55;19.38;;;;;;;7.15;72.49;102689.63;4995531;28;20037;-85
2022/03/15 01:15:41;;;;;;;31.92;17.55;;;;;;;7.28;72.12;102693.19;4935462;29;20043;-86
2022/03/15 01:19:20;;;;;;;35.95;18.38;;;;;;;7.31;72.24;102704.59;4934882;28;20036;-86
2022/03/15 01:22:21;;;;;;;33.95;16.90;;;;;;;7.33;71.96;102692.34;4909691;29;20147;-85
2022/03/15 01:25:32;;;;;;;25.50;16.27;;;;;;;7.41;71.02;102695.88;4935634;28;20102;-84
2022/03/15 01:28:20;;;;;;;27.98;15.57;;;;;;;7.39;72.39;102684.44;4939035;28;20035;-85
2022/03/15 01:31:21;;;;;;;29.30;15.82;;;;;;;7.36;72.35;102689.69;4918801;29;20040;-84
2022/03/15 01:37:58;;;;;;;33.30;16.75;;;;;;;7.32;72.16;102674.78;4932289;28;20392;-86
2022/03/15 01:41:13;;;;;;;31.73;16.50;;;;;;;7.36;72.01;102670.41;4933217;28;20058;-85
2022/03/15 01:43:47;;;;;;;30.55;15.73;;;;;;;7.32;72.58;102673.88;4933825;28;20475;-85
2022/03/15 01:46:36;;;;;;;29.92;18.05;;;;;;;7.28;72.08;102664.25;4944867;28;20490;-85
2022/03/15 01:49:25;;;;;;;24.80;16.10;;;;;;;7.26;72.08;102666.00;4944861;28;20196;-85
2022/03/15 01:52:52;;;;;;;27.70;15.07;;;;;;;7.27;71.91;102663.34;4923978;29;20503;-84
2022/03/15 01:56:07;;;;;;;25.65;14.90;;;;;;;7.29;72.24;102661.63;4913136;29;20568;-85
2022/03/15 02:02:06;;;;;;;26.13;14.93;;;;;;;7.27;72.41;102650.19;4906258;29;20058;-85
2022/03/15 02:04:56;;;;;;;29.48;15.68;;;;;;;7.27;72.38;102654.59;4907468;29;20055;-84
2022/03/15 02:07:58;;;;;;;31.85;16.27;;;;;;;7.25;73.01;102656.34;4926607;29;20054;-84
2022/03/15 02:11:10;;;;;;;26.92;15.35;;;;;;;7.27;72.23;102654.59;4939712;28;20055;-85
2022/03/15 02:14:40;;;;;;;29.23;15.00;;;;;;;7.32;71.75;102655.47;4940274;28;20557;-84
2022/03/15 02:17:59;;;;;;;25.27;14.85;;;;;;;7.34;72.23;102656.38;4955365;28;20399;-86
2022/03/15 02:21:00;;;;;;;26.45;15.85;;;;;;;7.33;71.55;102654.63;4948032;28;20130;-85
2022/03/15 02:24:08;;;;;;;29.67;14.75;;;;;;;7.30;71.56;102646.72;4944853;28;20332;-85
2022/03/15 02:27:09;;;;;;;26.90;14.60;;;;;;;7.22;71.92;102633.53;4996403;28;20568;-85
2022/03/15 02:30:32;;;;;;;24.00;15.07;;;;;;;7.19;72.23;102630.91;5001289;28;20041;-85
2022/03/15 02:33:54;;;;;;;25.73;15.45;;;;;;;7.12;72.02;102615.97;4999379;28;20030;-85
2022/03/15 02:37:26;;;;;;;26.40;15.13;;;;;;;7.15;71.63;102627.38;5042828;28;20585;-85
2022/03/15 02:40:27;;;;;;;24.48;15.02;;;;;;;7.13;71.60;102625.63;5010760;28;20123;-85
2022/03/15 02:46:52;;;;;;;23.38;13.73;;;;;;;7.09;72.10;102629.13;5017647;28;20681;-85
2022/03/15 02:52:47;;;;;;;28.35;15.15;;;;;;;6.99;72.79;102620.31;5032843;28;20074;-85
2022/03/15 02:59:45;;;;;;;28.75;14.68;;;;;;;7.13;71.81;102610.75;5037630;28;20063;-85
2022/03/15 03:02:35;;;;;;;28.95;14.38;;;;;;;7.12;72.38;102606.31;4979716;28;20178;-85
2022/03/15 03:05:12;;;;;;;23.45;14.00;;;;;;;7.10;72.68;102599.31;5001607;28;20042;-85
2022/03/15 03:08:25;;;;;;;24.65;14.90;;;;;;;7.11;72.29;102595.81;4977774;28;20046;-86
2022/03/15 03:11:50;;;;;;;25.52;13.10;;;;;;;7.16;71.57;102589.69;4998920;28;20498;-84
2022/03/15 03:15:02;;;;;;;20.83;14.02;;;;;;;7.14;71.74;102582.69;4976520;28;20423;-85
2022/03/15 03:18:53;;;;;;;25.70;13.93;;;;;;;7.07;72.00;102581.78;4988204;28;20033;-85
2022/03/15 03:24:53;;;;;;;23.42;14.50;;;;;;;7.00;72.07;102580.03;4995843;28;20036;-85
2022/03/15 03:28:00;;;;;;;25.00;14.02;;;;;;;7.01;71.58;102580.91;4995962;28;20140;-85
2022/03/15 03:34:01;;;;;;;25.52;13.15;;;;;;;6.91;72.50;102569.47;4944928;28;20738;-86
2022/03/15 03:36:58;;;;;;;20.67;13.10;;;;;;;6.94;72.38;102568.59;4993126;28;20317;-86
2022/03/15 03:39:37;;;;;;;24.00;14.13;;;;;;;6.91;72.44;102572.09;4979449;28;20535;-85
2022/03/15 03:46:08;;;;;;;22.23;13.00;;;;;;;6.84;72.54;102565.94;4940061;28;20185;-86
2022/03/15 03:49:12;;;;;;;22.90;13.70;;;;;;;6.78;73.03;102568.56;4932665;28;20603;-86
2022/03/15 03:52:22;;;;;;;24.13;13.13;;;;;;;6.82;72.56;102574.69;4951335;28;20533;-85
2022/03/15 03:55:23;;;;;;;21.35;13.35;;;;;;;6.81;72.68;102565.94;4947748;28;20046;-85
2022/03/15 03:58:06;;;;;;;27.38;14.90;;;;;;;6.84;73.74;102570.31;4981536;28;20536;-85
2022/03/15 04:00:58;;;;;;;20.95;13.20;;;;;;;6.88;72.66;102561.56;4978595;28;21956;-86
2022/03/15 04:04:20;;;;;;;21.83;12.30;;;;;;;6.79;72.83;102557.16;4979031;28;20157;-84
2022/03/15 04:10:21;;;;;;;20.13;12.70;;;;;;;6.80;72.56;102560.66;4975885;28;20037;-86
2022/03/15 04:13:24;;;;;;;23.30;13.75;;;;;;;6.79;73.04;102567.66;4976879;28;20337;-85
2022/03/15 04:19:33;;;;;;;20.98;12.73;;;;;;;6.81;72.73;102563.31;4978043;28;20041;-86
2022/03/15 04:25:22;;;;;;;24.55;13.27;;;;;;;6.82;72.75;102566.81;4997509;28;20668;-85
2022/03/15 04:28:23;;;;;;;22.30;12.82;;;;;;;6.85;72.09;102570.34;5009945;28;20575;-85
2022/03/15 04:31:14;;;;;;;22.10;12.77;;;;;;;6.86;71.90;102568.59;5038729;28;20044;-86
2022/03/15 04:34:17;;;;;;;24.00;12.90;;;;;;;6.80;72.85;102569.41;5018772;28;20024;-86
2022/03/15 04:37:15;;;;;;;20.88;11.70;;;;;;;6.79;72.53;102564.16;5031877;28;20033;-85
2022/03/15 04:40:59;;;;;;;27.23;13.52;;;;;;;6.84;72.05;102567.69;5028933;28;20052;-86
2022/03/15 04:44:08;;;;;;;19.83;12.07;;;;;;;6.85;72.33;102562.47;4980421;28;20048;-84
2022/03/15 04:51:11;;;;;;;18.42;12.63;;;;;;;6.82;72.38;102551.03;4940984;28;20031;-85
2022/03/15 04:53:50;;;;;;;25.33;12.80;;;;;;;6.79;72.20;102543.13;4901742;29;20450;-84
2022/03/15 04:56:39;;;;;;;26.38;12.90;;;;;;;6.85;72.04;102558.91;4952289;28;20042;-85
2022/03/15 04:59:19;;;;;;;23.40;12.02;;;;;;;6.80;72.44;102555.41;4955273;28;20027;-85
2022/03/15 05:02:12;;;;;;;20.60;12.75;;;;;;;6.81;72.18;102551.94;4961024;28;20472;-85
2022/03/15 05:08:35;;;;;;;20.80;12.60;;;;;;;6.77;72.16;102544.91;4956675;28;20321;-86
2022/03/15 05:11:10;;;;;;;22.05;12.93;;;;;;;6.70;72.58;102541.34;4973963;28;20267;-86
2022/03/15 05:14:15;;;;;;;19.38;13.32;;;;;;;6.72;72.27;102544.88;4974132;28;20632;-85
2022/03/15 05:16:54;;;;;;;19.58;12.30;;;;;;;6.70;72.55;102541.34;4975873;28;20533;-85
2022/03/15 05:19:25;;;;;;;22.23;12.63;;;;;;;6.68;72.46;102535.22;5036962;28;20057;-85
2022/03/15 05:21:57;;;;;;;21.00;12.23;;;;;;;6.72;72.42;102538.75;5052358;28;20753;-86
2022/03/15 05:24:48;;;;;;;22.65;11.50;;;;;;;6.67;72.27;102537.84;5037569;28;20110;-85
2022/03/15 05:27:51;;;;;;;22.92;13.13;;;;;;;6.65;72.39;102535.22;5035693;28;20037;-85
2022/03/15 05:34:04;;;;;;;30.40;12.68;;;;;;;6.54;72.77;102532.56;4997767;28;20095;-86
2022/03/15 05:37:19;;;;;;;19.85;12.50;;;;;;;6.61;72.61;102541.31;4982353;28;20065;-86
2022/03/15 05:40:29;;;;;;;20.73;12.02;;;;;;;6.56;72.62;102533.44;5001143;28;20486;-85
2022/03/15 05:43:29;;;;;;;21.05;12.63;;;;;;;6.56;72.89;102533.44;4991711;28;20119;-86
2022/03/15 05:46:51;;;;;;;18.10;11.68;;;;;;;6.59;72.64;102529.94;4987927;28;20473;-86
2022/03/15 05:49:46;;;;;;;22.27;12.15;;;;;;;6.59;72.78;102519.44;5017900;28;20033;-85
2022/03/15 05:52:48;;;;;;;23.70;13.32;;;;;;;6.58;72.51;102518.56;5002617;28;20068;-85
2022/03/15 05:55:54;;;;;;;21.73;12.65;;;;;;;6.58;72.53;102517.69;5006314;28;20044;-85
2022/03/15 05:58:53;;;;;;;19.45;12.35;;;;;;;6.54;72.92;102514.16;5034117;28;20163;-86
2022/03/15 06:05:38;;;;;;;17.70;12.27;;;;;;;6.68;72.63;102510.69;5019560;28;20216;-85
2022/03/15 06:11:41;;;;;;;25.45;12.48;;;;;;;6.67;72.40;102515.09;5019543;28;20040;-85
2022/03/15 06:17:28;;;;;;;19.20;12.13;;;;;;;6.67;72.70;102508.91;5018358;28;20221;-85
2022/03/15 06:21:03;;;;;;;20.60;12.85;;;;;;;6.73;72.07;102503.72;5018727;28;20041;-84
2022/03/15 06:24:38;;;;;;;19.10;11.90;;;;;;;6.76;71.77;102503.69;4961235;28;20129;-86
2022/03/15 06:27:30;;;;;;;17.48;12.48;;;;;;;6.75;71.96;102501.94;4927241;28;20598;-85
2022/03/15 06:30:24;;;;;;;18.80;12.23;;;;;;;6.74;72.01;102500.19;4928870;29;20502;-85
2022/03/15 06:33:00;;;;;;;;;;;;;;;6.83;71.27;102503.72;4943105;28;20045;-85
2022/03/15 06:39:26;;;;;;;19.35;12.13;;;;;;;6.79;72.00;102499.31;4891618;29;20214;-85
2022/03/15 06:42:38;;;;;;;15.93;11.02;;;;;;;6.78;72.06;102492.31;4892868;29;20044;-85
2022/03/15 06:45:37;;;;;;;19.73;12.20;;;;;;;6.81;71.90;102502.84;4871263;29;20170;-86
2022/03/15 06:48:17;;;;;;;18.05;11.40;;;;;;;6.79;72.38;102501.09;4896945;29;20066;-86
2022/03/15 06:54:43;;;;;;;18.35;11.52;;;;;;;6.65;72.75;102496.66;4895105;29;20111;-85
2022/03/15 06:57:59;;;;;;;25.70;12.10;;;;;;;6.75;72.65;102488.81;4888924;29;20502;-85
2022/03/15 07:00:54;;;;;;;21.90;12.57;;;;;;;6.83;73.01;102487.06;4891115;29;20036;-86
2022/03/15 07:04:01;;;;;;;21.13;12.32;;;;;;;6.86;72.76;102489.72;4874055;29;20117;-86
2022/03/15 07:11:19;;;;;;;21.48;12.52;;;;;;;7.03;72.15;102485.34;4857905;29;20132;-84
2022/03/15 07:14:02;;;;;;;21.75;12.35;;;;;;;7.08;71.66;102487.97;4812379;29;20050;-85
2022/03/15 07:17:14;;;;;;;20.58;11.40;;;;;;;7.09;72.11;102488.00;4817216;29;20077;-85
2022/03/15 07:20:25;;;;;;;21.70;11.73;;;;;;;7.16;72.30;102484.47;4819241;29;20471;-85
2022/03/15 07:23:24;;;;;;;20.10;11.40;;;;;;;7.17;72.21;102474.81;4796964;29;20594;-86
2022/03/15 07:26:01;;;;;;;18.55;10.57;;;;;;;7.22;71.80;102473.06;4794203;29;20046;-85
2022/03/15 07:28:57;;;;;;;18.05;10.52;;;;;;;7.30;71.59;102462.56;4810874;29;20045;-86
2022/03/15 07:31:37;;;;;;;16.38;10.60;;;;;;;7.32;71.73;102461.69;4790535;29;20310;-86
2022/03/15 07:34:49;;;;;;;15.25;10.70;;;;;;;7.44;72.19;102467.81;4793970;29;20035;-85
2022/03/15 07:37:50;;;;;;;;;;;;;;;7.58;71.21;102464.28;4828198;29;20093;-86
2022/03/15 07:43:44;;;;;;;21.45;9.98;;;;;;;7.61;71.45;102468.66;4860691;29;20051;-86
2022/03/15 07:46:25;;;;;;;19.58;9.48;;;;;;;7.52;71.58;102469.56;4903824;29;20148;-84
2022/03/15 07:49:08;;;;;;;18.88;10.18;;;;;;;7.53;71.55;102473.06;4945674;28;20052;-86
2022/03/15 07:51:43;;;;;;;18.48;10.88;;;;;;;7.56;72.04;102470.44;5011393;28;20545;-86
2022/03/15 07:54:42;;;;;;;16.67;10.18;;;;;;;7.70;71.36;102475.69;4995986;28;20026;-86
2022/03/15 07:57:09;;;;;;;19.25;10.00;;;;;;;7.71;71.65;102480.06;4995950;28;20030;-86
2022/03/15 07:59:50;;;;;;;16.17;10.20;;;;;;;7.65;71.02;102466.03;4994714;28;20285;-85
2022/03/15 08:02:15;;;;;;;16.27;10.07;;;;;;;7.73;70.64;102466.00;4982742;28;20901;-85
2022/03/15 08:04:41;;;;;;;15.63;10.60;;;;;;;7.67;70.71;102466.88;4999791;28;20038;-85
2022/03/15 08:07:07;;;;;;;16.98;9.70;;;;;;;7.71;70.56;102456.38;5004686;28;20496;-85
2022/03/15 08:09:32;;;;;;;18.80;9.38;;;;;;;7.78;70.86;102455.44;4988755;28;20034;-85
2022/03/15 08:11:58;;;;;;;12.88;8.68;;;;;;;7.76;70.19;102459.84;5004421;28;20100;-85
2022/03/15 08:14:23;;;;;;;13.35;9.07;;;;;;;7.79;70.59;102457.22;5006447;28;20060;-86
2022/03/15 08:16:49;;;;;;;14.68;9.48;;;;;;;7.88;70.72;102458.06;5007425;28;20041;-86
2022/03/15 08:19:14;;;;;;;18.27;9.23;;;;;;;7.95;70.44;102444.88;5007735;28;20044;-85
2022/03/15 08:21:39;;;;;;;16.92;8.63;;;;;;;7.99;69.87;102441.34;5008232;28;20029;-85
2022/03/15 08:24:05;;;;;;;16.67;8.88;;;;;;;8.07;70.15;102444.84;5012293;28;20158;-85
2022/03/15 08:26:31;;;;;;;16.50;9.77;;;;;;;8.09;70.51;102443.94;5011108;28;20030;-88
2022/03/15 08:28:56;;;;;;;14.90;8.73;;;;;;;8.14;69.90;102439.53;5015871;28;20029;-86
2022/03/15 08:31:21;;;;;;;15.48;8.80;;;;;;;8.19;69.44;102429.84;5008631;28;20048;-86
2022/03/15 08:33:47;;;;;;;13.60;8.85;;;;;;;8.28;70.03;102428.06;5009481;28;20041;-85
2022/03/15 08:36:13;;;;;;;18.50;8.77;;;;;;;8.35;69.83;102427.16;5039362;28;20054;-86
2022/03/15 08:38:39;;;;;;;16.70;9.00;;;;;;;8.38;69.64;102429.78;5067730;28;20098;-86
2022/03/15 08:41:05;;;;;;;14.23;8.43;;;;;;;8.48;69.22;102434.09;5069148;28;20031;-85
2022/03/15 08:43:30;;;;;;;15.60;8.73;;;;;;;8.55;69.07;102434.97;5070364;28;20107;-86
2022/03/15 08:45:56;;;;;;;21.17;8.65;;;;;;;8.60;69.77;102436.69;5073198;28;20058;-86
2022/03/15 08:48:21;;;;;;;15.35;9.20;;;;;;;8.63;68.78;102430.53;5079427;28;20099;-86
2022/03/15 08:50:46;;;;;;;15.52;8.13;;;;;;;8.74;68.75;102435.72;5071471;28;20046;-86
2022/03/15 08:53:12;;;;;;;17.90;8.55;;;;;;;8.83;68.46;102433.03;5070777;28;20020;-85
2022/03/15 08:55:38;;;;;;;16.38;7.90;;;;;;;8.86;68.15;102428.59;5070393;28;20035;-86
2022/03/15 08:58:03;;;;;;;13.00;7.68;;;;;;;8.92;68.22;102430.31;5067794;28;20024;-87
2022/03/15 09:00:28;;;;;;;14.02;7.63;;;;;;;8.92;68.27;102423.28;5069270;28;20036;-87
2022/03/15 09:02:54;;;;;;;10.73;7.43;;;;;;;8.98;68.11;102418.84;5070454;28;20028;-86
2022/03/15 09:05:19;;;;;;;18.00;8.02;;;;;;;9.02;68.04;102421.44;5069698;28;20036;-86
2022/03/15 09:07:53;;;;;;;16.38;7.72;;;;;;;9.08;68.05;102428.41;5070739;28;20037;-86
2022/03/15 09:10:23;;;;;;;13.82;7.43;;;;;;;9.15;68.06;102423.09;5069692;28;20032;-86
2022/03/15 09:12:49;;;;;;;13.07;7.28;;;;;;;9.21;66.85;102408.94;5097279;28;20027;-87
2022/03/15 09:15:15;;;;;;;16.52;7.50;;;;;;;9.23;66.23;102408.91;5064575;28;20484;-86
2022/03/15 09:17:41;;;;;;;14.52;7.95;;;;;;;9.25;66.40;102409.81;5068742;28;20059;-86
2022/03/15 09:20:08;;;;;;;13.77;7.72;;;;;;;9.24;66.67;102400.16;5061747;28;20021;-86
2022/03/15 09:22:34;;;;;;;17.27;7.30;;;;;;;9.31;66.08;102421.16;5061491;28;20111;-86
2022/03/15 09:24:59;;;;;;;13.02;6.72;;;;;;;9.31;66.25;102418.53;5069358;28;20123;-86
2022/03/15 09:27:24;;;;;;;10.73;6.70;;;;;;;9.32;65.52;102407.06;5069970;28;20492;-87
2022/03/15 09:29:49;;;;;;;12.70;6.80;;;;;;;9.32;65.71;102407.06;5069327;28;20420;-86
2022/03/15 09:32:15;;;;;;;11.02;6.53;;;;;;;9.38;65.08;102409.66;5067872;28;20047;-86
2022/03/15 09:34:43;;;;;;;14.85;6.57;;;;;;;9.37;64.99;102415.84;5070884;28;20048;-86
2022/03/15 09:37:08;;;;;;;11.73;6.43;;;;;;;9.50;65.05;102420.97;5069690;28;20024;-86
2022/03/15 09:39:34;;;;;;;11.10;6.80;;;;;;;9.50;65.11;102408.66;5067519;28;20044;-86
2022/03/15 09:41:59;;;;;;;12.75;6.68;;;;;;;9.60;65.16;102409.44;5067866;28;20476;-86
2022/03/15 09:44:28;;;;;;;13.85;7.10;;;;;;;9.59;64.21;102413.84;5081488;28;20021;-86
2022/03/15 09:46:59;;;;;;;13.05;7.25;;;;;;;9.58;64.04;102405.94;5099312;28;20021;-86
2022/03/15 09:49:26;;;;;;;13.75;7.15;;;;;;;9.55;64.10;102408.59;5068616;28;20033;-86
2022/03/15 09:51:53;;;;;;;12.63;6.70;;;;;;;9.68;64.15;102400.53;5069651;28;20020;-87
2022/03/15 09:54:19;;;;;;;13.85;6.68;;;;;;;9.71;63.51;102394.34;5068705;28;20031;-86
2022/03/15 09:56:45;;;;;;;13.98;7.43;;;;;;;9.82;63.61;102410.06;5078699;28;20387;-86
2022/03/15 09:59:14;;;;;;;11.32;6.95;;;;;;;9.90;63.49;102417.00;5070302;28;20439;-86
2022/03/15 10:01:40;;;;;;;10.45;6.80;;;;;;;10.00;64.13;102409.84;5066440;28;20035;-88
2022/03/15 10:04:05;;;;;;;13.70;6.93;;;;;;;10.06;63.29;102406.25;5073216;28;20032;-87
2022/03/15 10:06:31;;;;;;;13.98;7.20;;;;;;;10.16;62.42;102402.56;5102956;28;20503;-87
2022/03/15 10:08:56;;;;;;;12.27;7.25;;;;;;;10.23;62.56;102394.56;5077895;28;20032;-86
2022/03/15 10:11:23;;;;;;;17.00;7.15;;;;;;;10.33;63.55;102386.53;5072341;28;20395;-86
2022/03/15 10:13:49;;;;;;;10.95;7.00;;;;;;;10.51;62.58;102399.47;5071475;28;20036;-87
2022/03/15 10:16:15;;;;;;;11.18;6.53;;;;;;;10.65;63.15;102388.69;5072622;28;20020;-86
2022/03/15 10:18:55;;;;;;;8.55;6.15;;;;;;;10.83;63.43;102392.81;5062925;28;20067;-87
2022/03/15 10:21:24;;;;;;;16.70;7.80;;;;;;;10.94;63.00;102393.50;5063462;28;20618;-86
2022/03/15 10:23:54;;;;;;;10.20;6.32;;;;;;;11.05;60.77;102385.38;5069873;28;20027;-86
2022/03/15 10:26:24;;;;;;;15.25;6.60;;;;;;;11.02;60.21;102375.72;5065880;28;20601;-87
2022/03/15 10:28:53;;;;;;;12.13;6.65;;;;;;;11.04;60.05;102373.91;5071966;28;20471;-86
2022/03/15 10:31:22;;;;;;;9.18;6.10;;;;;;;11.09;60.91;102368.53;5067302;28;20504;-86
2022/03/15 10:33:51;;;;;;;10.98;6.53;;;;;;;11.07;59.66;102371.22;5070158;28;20024;-86
2022/03/15 10:36:19;;;;;;;11.50;6.07;;;;;;;11.10;60.56;102365.03;5072308;28;20040;-86
2022/03/15 10:38:48;;;;;;;10.23;5.88;;;;;;;11.16;60.30;102368.41;5069243;28;20052;-87
2022/03/15 10:41:15;;;;;;;14.13;6.57;;;;;;;11.14;59.90;102367.56;5072503;28;20036;-87
2022/03/15 10:43:41;;;;;;;11.32;7.32;;;;;;;11.01;59.68;102362.53;5054510;28;20020;-88
2022/03/15 10:46:09;;;;;;;10.38;6.22;;;;;;;11.01;60.36;102362.53;5056152;28;20085;-87
2022/03/15 10:48:35;;;;;;;13.50;6.38;;;;;;;11.08;59.80;102349.16;5076237;28;20537;-87
2022/03/15 10:51:05;;;;;;;12.23;7.20;;;;;;;11.13;59.06;102354.34;5073649;28;20097;-89
2022/03/15 10:53:40;;;;;;;10.48;6.90;;;;;;;11.21;59.60;102358.63;5077364;28;20103;-87
2022/03/15 10:56:19;;;;;;;12.32;6.78;;;;;;;11.22;60.05;102344.47;5049908;28;20028;-87
2022/03/15 10:58:46;;;;;;;16.58;7.32;;;;;;;11.21;59.59;102344.50;5057627;28;20410;-88
2022/03/15 11:01:12;;;;;;;14.57;7.15;;;;;;;11.15;60.22;102350.81;5078446;28;20099;-88
2022/03/15 11:03:38;;;;;;;14.18;7.18;;;;;;;11.16;60.21;102339.31;5068501;28;20392;-88
2022/03/15 11:06:08;;;;;;;17.52;7.57;;;;;;;11.10;60.39;102339.44;5082615;28;20024;-87
2022/03/15 11:08:34;;;;;;;10.23;7.28;;;;;;;11.22;60.45;102336.53;5052170;28;20460;-88
2022/03/15 11:11:03;;;;;;;17.05;7.32;;;;;;;11.19;59.80;102318.09;5082813;28;20768;-87
2022/03/15 11:13:29;;;;;;;11.88;6.72;;;;;;;11.33;59.91;102332.81;5062586;28;20099;-85
2022/03/15 11:15:56;;;;;;;15.88;8.15;;;;;;;11.34;60.36;102326.63;5054963;28;20069;-87
2022/03/15 11:18:25;;;;;;;16.38;7.40;;;;;;;11.46;60.23;102329.00;5063863;28;20120;-88
2022/03/15 11:20:51;;;;;;;14.27;6.70;;;;;;;11.61;59.32;102318.13;5065677;28;20024;-89
2022/03/15 11:23:18;;;;;;;11.18;6.40;;;;;;;11.80;59.38;102317.72;5071700;28;20019;-87
2022/03/15 11:25:46;;;;;;;13.25;6.32;;;;;;;11.83;58.58;102317.69;5051770;28;20403;-87
2022/03/15 11:28:14;;;;;;;11.70;6.50;;;;;;;11.71;58.80;102310.84;5069263;28;20459;-85
2022/03/15 11:30:42;;;;;;;12.38;6.20;;;;;;;11.54;58.44;102305.91;5070687;28;20025;-86
2022/03/15 11:33:08;;;;;;;13.13;6.68;;;;;;;11.66;58.98;102296.84;5064163;28;20399;-87
2022/03/15 11:35:35;;;;;;;12.32;5.90;;;;;;;11.71;58.95;102308.22;5069949;28;20012;-88
2022/03/15 11:38:04;;;;;;;12.20;6.43;;;;;;;11.75;58.03;102307.25;5065179;28;20383;-86
2022/03/15 11:40:31;;;;;;;8.88;5.90;;;;;;;11.74;58.80;102295.75;5045010;28;21021;-87
2022/03/15 11:43:32;;;;;;;33.30;9.85;;;;;;;11.78;58.57;102290.38;5061807;28;20100;-85
2022/03/15 11:46:43;;;;;;;11.07;5.93;;;;;;;11.98;59.23;102294.38;5057256;28;20530;-85
2022/03/15 11:50:42;;;;;;;9.52;6.15;;;;;;;12.18;58.65;102285.97;5036242;28;20026;-86
2022/03/15 11:53:07;;;;;;;11.52;6.00;;;;;;;12.13;58.02;102284.34;5020723;28;20043;-86
2022/03/15 11:55:47;;;;;;;9.60;6.47;;;;;;;12.08;58.68;102276.50;5029187;28;20112;-86
2022/03/15 11:58:39;;;;;;;13.77;6.15;;;;;;;12.07;59.03;102277.38;5034093;28;20037;-86
2022/03/15 12:02:01;;;;;;;10.38;5.60;;;;;;;11.99;58.86;102259.00;5031433;28;20473;-85
2022/03/15 12:04:53;;;;;;;17.30;6.03;;;;;;;11.97;59.71;102262.59;5044876;28;20041;-86
2022/03/15 12:14:21;;;;;;;10.10;5.63;;;;;;;12.03;58.82;102249.22;4936968;29;20041;-86
2022/03/15 12:17:16;;;;;;;19.23;6.78;;;;;;;12.06;59.13;102248.25;4931544;29;20040;-86
2022/03/15 12:20:36;;;;;;;12.05;6.13;;;;;;;12.10;59.15;102247.28;4932369;29;20929;-86
2022/03/15 12:23:34;;;;;;;11.25;5.88;;;;;;;12.15;59.23;102248.91;5029993;28;20256;-87
2022/03/15 12:30:18;;;;;;;10.13;5.43;;;;;;;12.50;58.12;102228.59;4981121;28;20053;-86
2022/03/15 12:32:51;;;;;;;12.02;6.45;;;;;;;12.48;57.27;102219.81;4959044;28;20034;-87
2022/03/15 12:35:57;;;;;;;12.50;5.63;;;;;;;12.70;58.03;102220.13;4995937;28;20513;-87
2022/03/15 12:38:32;;;;;;;12.35;6.25;;;;;;;13.03;57.29;102221.81;5006051;28;20497;-86
2022/03/15 12:44:14;;;;;;;;;;;;;;;13.50;56.09;102222.25;5007900;28;20049;-86
2022/03/15 12:50:13;;;;;;;6.57;4.78;;;;;;;13.41;56.52;102230.50;5016134;28;20056;-86
2022/03/15 12:52:49;;;;;;;7.28;4.07;;;;;;;13.41;55.43;102229.63;4996670;28;20523;-85
2022/03/15 12:55:21;;;;;;;5.05;3.33;;;;;;;13.48;54.54;102223.25;5014904;28;20021;-86
2022/03/15 12:57:48;;;;;;;3.63;2.88;;;;;;;13.33;54.21;102218.34;5015131;28;20029;-86
2022/03/15 13:00:16;;;;;;;4.90;2.45;;;;;;;13.21;54.71;102215.13;5017083;28;20283;-85
2022/03/15 13:02:42;;;;;;;7.88;3.30;;;;;;;12.97;55.22;102207.88;5002956;28;20150;-86
2022/03/15 13:05:17;;;;;;;4.68;3.60;;;;;;;12.99;55.71;102208.69;5017163;28;20041;-86
2022/03/15 13:07:46;;;;;;;5.30;3.20;;;;;;;12.92;56.21;102209.78;5013502;28;20033;-86
2022/03/15 13:10:14;;;;;;;4.97;3.10;;;;;;;12.90;55.66;102200.97;5018485;28;20454;-86
2022/03/15 13:12:42;;;;;;;7.32;3.33;;;;;;;12.88;56.03;102209.00;5001840;28;20028;-86
2022/03/15 13:15:08;;;;;;;3.60;2.90;;;;;;;12.88;55.39;102208.13;5025946;28;20040;-87
2022/03/15 13:17:46;;;;;;;3.58;3.17;;;;;;;12.86;55.54;102210.81;5036030;28;20214;-87
2022/03/15 13:20:22;;;;;;;6.07;3.42;;;;;;;12.93;55.76;102211.53;5038005;28;20111;-86
2022/03/15 13:22:56;;;;;;;8.20;2.95;;;;;;;12.95;56.19;102204.38;5038863;28;20095;-86
2022/03/15 13:25:21;;;;;;;5.80;3.42;;;;;;;13.09;55.67;102203.97;5021464;28;20037;-87
2022/03/15 13:27:55;;;;;;;6.40;3.00;;;;;;;13.12;55.09;102190.63;5054366;28;20056;-88
2022/03/15 13:30:21;;;;;;;5.80;3.10;;;;;;;13.18;55.26;102190.44;5038787;28;20037;-87
2022/03/15 13:32:53;;;;;;;5.85;3.22;;;;;;;13.11;54.49;102186.25;5037251;28;20534;-87
2022/03/15 13:35:24;;;;;;;6.20;3.40;;;;;;;13.27;55.00;102192.84;5039497;28;20029;-87
2022/03/15 13:37:49;;;;;;;4.80;3.38;;;;;;;13.30;54.30;102186.59;5039791;28;20090;-88
2022/03/15 13:40:17;;;;;;;6.35;3.25;;;;;;;13.27;53.57;102190.19;5043256;28;20048;-86
2022/03/15 13:42:43;;;;;;;5.70;3.42;;;;;;;13.26;53.87;102188.47;5041584;28;20028;-87
2022/03/15 13:45:11;;;;;;;7.65;3.08;;;;;;;13.34;54.01;102185.59;5043831;28;20024;-88
2022/03/15 13:47:36;;;;;;;3.38;2.72;;;;;;;13.41;53.50;102181.81;5039548;28;20034;-87
2022/03/15 13:50:06;;;;;;;4.90;3.70;;;;;;;13.50;54.31;102187.72;5095852;28;20486;-88
2022/03/15 13:52:33;;;;;;;7.72;3.22;;;;;;;13.56;54.33;102191.09;5067576;28;20031;-86
2022/03/15 13:55:01;;;;;;;3.67;3.20;;;;;;;13.52;53.82;102204.50;5084542;28;20023;-87
2022/03/15 13:57:26;;;;;;;4.30;3.00;;;;;;;13.56;54.91;102199.06;5082565;28;20028;-88
2022/03/15 14:00:05;;;;;;;4.70;3.05;;;;;;;13.60;54.43;102198.06;5086021;28;20043;-86
2022/03/15 14:02:35;;;;;;;5.22;3.25;;;;;;;13.49;54.58;102191.31;5067347;28;20097;-88
2022/03/15 14:05:06;;;;;;;4.95;3.20;;;;;;;13.55;53.61;102203.53;5086358;28;20233;-87
2022/03/15 14:07:33;;;;;;;5.10;3.30;;;;;;;13.59;53.53;102212.28;5085758;28;20060;-87
2022/03/15 14:10:08;;;;;;;6.13;3.50;;;;;;;13.52;54.02;102212.47;5068045;28;20047;-87
2022/03/15 14:12:34;;;;;;;10.55;3.03;;;;;;;13.52;54.69;102216.88;5099549;28;20056;-88
2022/03/15 14:15:11;;;;;;;5.47;2.60;;;;;;;13.56;55.00;102215.88;5065002;28;20028;-87
2022/03/15 14:17:48;;;;;;;6.55;3.22;;;;;;;13.61;55.21;102215.75;5084513;28;20486;-87
2022/03/15 14:20:20;;;;;;;6.68;3.22;;;;;;;13.65;54.89;102209.41;5084196;28;20027;-86
2022/03/15 14:22:55;;;;;;;4.15;3.45;;;;;;;13.72;54.68;102203.00;5084037;28;20032;-86
2022/03/15 14:25:25;;;;;;;7.22;3.78;;;;;;;13.70;54.56;102205.69;5083267;28;20381;-87
2022/03/15 14:27:57;;;;;;;11.27;4.63;;;;;;;13.61;54.82;102184.72;5083190;28;20179;-87